sensor_id;sensor_type;location;lat;lon;timestamp;pressure;altitude;pressure_sealevel;temperature;humidity
52983;BME280;48698;45.736;13.926;2022-08-14T00:03:05;97383.69;;;14.69;100.00
52983;BME280;48698;45.736;13.926;2022-08-14T00:08:09;97326.84;;;13.79;100.00
52983;BME280;48698;45.736;13.926;2022-08-14T00:13:17;97387.06;;;14.35;100.00
52983;BME280;48698;45.736;13.926;2022-08-14T00:18:22;97366.38;;;14.62;100.00
52983;BME280;48698;45.736;13.926;2022-08-14T00:23:45;97360.22;;;13.98;100.00
52983;BME280;48698;45.736;13.926;2022-08-14T00:28:55;97363.72;;;14.24;100.00
52983;BME280;48698;45.736;13.926;2022-08-14T00:33:58;97266.97;;;13.70;100.00
52983;BME280;48698;45.736;13.926;2022-08-14T00:39:20;97350.16;;;14.40;100.00
52983;BME280;48698;45.736;13.926;2022-08-14T00:44:26;97212.63;;;13.21;100.00
52983;BME280;48698;45.736;13.926;2022-08-14T00:49:34;97201.00;;;13.22;100.00
52983;BME280;48698;45.736;13.926;2022-08-14T00:54:45;97332.63;;;14.11;100.00
52983;BME280;48698;45.736;13.926;2022-08-14T00:59:48;97301.56;;;13.84;100.00
52983;BME280;48698;45.736;13.926;2022-08-14T01:04:55;97338.72;;;13.87;100.00
52983;BME280;48698;45.736;13.926;2022-08-14T01:10:03;97283.91;;;13.05;100.00
52983;BME280;48698;45.736;13.926;2022-08-14T01:15:07;97154.59;;;12.33;100.00
52983;BME280;48698;45.736;13.926;2022-08-14T01:20:17;97185.28;;;13.05;100.00
52983;BME280;48698;45.736;13.926;2022-08-14T01:25:41;97312.47;;;13.81;100.00
52983;BME280;48698;45.736;13.926;2022-08-14T01:30:43;97252.34;;;13.63;100.00
52983;BME280;48698;45.736;13.926;2022-08-14T01:35:46;97273.66;;;13.25;100.00
52983;BME280;48698;45.736;13.926;2022-08-14T01:41:11;97260.41;;;13.24;100.00
52983;BME280;48698;45.736;13.926;2022-08-14T01:46:18;97293.34;;;13.23;100.00
52983;BME280;48698;45.736;13.926;2022-08-14T01:51:26;97321.47;;;13.41;100.00
52983;BME280;48698;45.736;13.926;2022-08-14T01:56:30;97298.63;;;12.83;100.00
52983;BME280;48698;45.736;13.926;2022-08-14T02:01:40;97272.75;;;12.85;100.00
52983;BME280;48698;45.736;13.926;2022-08-14T02:06:58;97128.03;;;12.46;100.00
52983;BME280;48698;45.736;13.926;2022-08-14T02:12:03;97295.66;;;13.41;100.00
52983;BME280;48698;45.736;13.926;2022-08-14T02:17:10;97135.22;;;12.04;100.00
52983;BME280;48698;45.736;13.926;2022-08-14T02:22:15;97267.75;;;12.93;100.00
52983;BME280;48698;45.736;13.926;2022-08-14T02:27:40;97109.09;;;11.97;100.00
52983;BME280;48698;45.736;13.926;2022-08-14T02:33:04;97080.41;;;11.32;100.00
52983;BME280;48698;45.736;13.926;2022-08-14T02:38:11;97082.00;;;11.49;100.00
52983;BME280;48698;45.736;13.926;2022-08-14T02:43:31;97190.63;;;12.38;100.00
52983;BME280;48698;45.736;13.926;2022-08-14T02:48:40;97170.53;;;12.47;100.00
52983;BME280;48698;45.736;13.926;2022-08-14T02:54:04;97222.03;;;13.00;100.00
52983;BME280;48698;45.736;13.926;2022-08-14T02:59:09;97274.59;;;13.12;100.00
52983;BME280;48698;45.736;13.926;2022-08-14T03:04:13;97281.25;;;13.31;100.00
52983;BME280;48698;45.736;13.926;2022-08-14T03:09:18;97254.34;;;13.34;100.00
52983;BME280;48698;45.736;13.926;2022-08-14T03:14:21;97087.75;;;11.84;100.00
52983;BME280;48698;45.736;13.926;2022-08-14T03:19:28;97074.91;;;11.90;100.00
52983;BME280;48698;45.736;13.926;2022-08-14T03:24:31;97143.19;;;12.70;100.00
52983;BME280;48698;45.736;13.926;2022-08-14T03:29:34;97137.25;;;12.40;100.00
52983;BME280;48698;45.736;13.926;2022-08-14T03:34:41;97128.53;;;12.11;100.00
52983;BME280;48698;45.736;13.926;2022-08-14T03:39:54;97175.22;;;12.56;100.00
52983;BME280;48698;45.736;13.926;2022-08-14T03:44:57;97106.63;;;11.93;100.00
52983;BME280;48698;45.736;13.926;2022-08-14T03:50:20;97187.09;;;12.65;100.00
52983;BME280;48698;45.736;13.926;2022-08-14T03:55:32;97142.91;;;12.75;100.00
52983;BME280;48698;45.736;13.926;2022-08-14T04:00:36;97235.91;;;12.92;100.00
52983;BME280;48698;45.736;13.926;2022-08-14T04:05:45;97176.94;;;12.30;100.00
52983;BME280;48698;45.736;13.926;2022-08-14T04:10:49;97234.69;;;12.83;100.00
52983;BME280;48698;45.736;13.926;2022-08-14T04:15:53;97200.00;;;12.44;100.00
52983;BME280;48698;45.736;13.926;2022-08-14T04:21:05;97179.75;;;12.68;100.00
52983;BME280;48698;45.736;13.926;2022-08-14T04:26:11;97209.88;;;13.22;100.00
52983;BME280;48698;45.736;13.926;2022-08-14T04:31:35;96999.97;;;11.97;100.00
52983;BME280;48698;45.736;13.926;2022-08-14T04:36:58;97212.34;;;12.99;100.00
52983;BME280;48698;45.736;13.926;2022-08-14T04:42:25;97087.72;;;12.37;100.00
52983;BME280;48698;45.736;13.926;2022-08-14T04:47:52;97179.72;;;12.95;100.00
52983;BME280;48698;45.736;13.926;2022-08-14T04:53:19;97203.72;;;13.08;100.00
52983;BME280;48698;45.736;13.926;2022-08-14T04:58:28;97140.25;;;12.87;100.00
52983;BME280;48698;45.736;13.926;2022-08-14T05:03:35;97182.44;;;13.33;100.00
52983;BME280;48698;45.736;13.926;2022-08-14T05:08:38;97146.81;;;13.34;100.00
52983;BME280;48698;45.736;13.926;2022-08-14T05:13:58;97114.72;;;13.23;100.00
52983;BME280;48698;45.736;13.926;2022-08-14T05:19:23;97165.59;;;14.07;100.00
52983;BME280;48698;45.736;13.926;2022-08-14T05:24:30;96957.84;;;13.17;100.00
52983;BME280;48698;45.736;13.926;2022-08-14T05:29:32;96992.00;;;13.48;100.00
52983;BME280;48698;45.736;13.926;2022-08-14T05:34:38;97087.97;;;14.33;100.00
52983;BME280;48698;45.736;13.926;2022-08-14T05:39:46;96986.72;;;14.07;100.00
52983;BME280;48698;45.736;13.926;2022-08-14T05:44:49;96961.81;;;14.06;100.00
52983;BME280;48698;45.736;13.926;2022-08-14T05:49:56;97081.25;;;15.09;100.00
52983;BME280;48698;45.736;13.926;2022-08-14T05:55:00;97111.97;;;15.71;100.00
52983;BME280;48698;45.736;13.926;2022-08-14T06:00:03;96967.88;;;15.11;100.00
52983;BME280;48698;45.736;13.926;2022-08-14T06:05:09;97099.31;;;16.27;100.00
52983;BME280;48698;45.736;13.926;2022-08-14T06:10:12;97023.13;;;16.20;100.00
52983;BME280;48698;45.736;13.926;2022-08-14T06:15:19;97050.94;;;16.72;100.00
52983;BME280;48698;45.736;13.926;2022-08-14T06:20:28;96934.78;;;16.71;100.00
52983;BME280;48698;45.736;13.926;2022-08-14T06:25:31;97114.72;;;18.40;100.00
52983;BME280;48698;45.736;13.926;2022-08-14T06:30:34;96945.78;;;17.78;100.00
52983;BME280;48698;45.736;13.926;2022-08-14T06:35:48;97061.28;;;18.85;100.00
52983;BME280;48698;45.736;13.926;2022-08-14T06:40:52;97057.06;;;19.29;100.00
52983;BME280;48698;45.736;13.926;2022-08-14T06:45:55;96973.59;;;19.29;100.00
52983;BME280;48698;45.736;13.926;2022-08-14T06:51:01;97153.09;;;20.58;100.00
52983;BME280;48698;45.736;13.926;2022-08-14T06:56:04;97118.44;;;20.63;100.00
52983;BME280;48698;45.736;13.926;2022-08-14T07:01:07;97078.88;;;20.72;100.00
52983;BME280;48698;45.736;13.926;2022-08-14T07:06:29;97153.44;;;21.44;100.00
52983;BME280;48698;45.736;13.926;2022-08-14T07:11:48;97132.94;;;21.59;100.00
52983;BME280;48698;45.736;13.926;2022-08-14T07:16:51;97104.47;;;21.90;100.00
52983;BME280;48698;45.736;13.926;2022-08-14T07:21:56;97090.63;;;21.93;100.00
52983;BME280;48698;45.736;13.926;2022-08-14T07:26:59;97094.63;;;22.31;100.00
52983;BME280;48698;45.736;13.926;2022-08-14T07:32:02;97175.94;;;23.30;100.00
52983;BME280;48698;45.736;13.926;2022-08-14T07:37:04;97105.28;;;23.07;100.00
52983;BME280;48698;45.736;13.926;2022-08-14T07:42:10;97173.53;;;23.99;100.00
52983;BME280;48698;45.736;13.926;2022-08-14T07:47:13;97088.16;;;23.71;100.00
52983;BME280;48698;45.736;13.926;2022-08-14T07:52:17;97000.03;;;23.75;100.00
52983;BME280;48698;45.736;13.926;2022-08-14T07:57:32;97118.38;;;24.62;100.00
52983;BME280;48698;45.736;13.926;2022-08-14T08:02:38;97175.06;;;25.18;100.00
52983;BME280;48698;45.736;13.926;2022-08-14T08:07:44;97121.06;;;24.62;100.00
52983;BME280;48698;45.736;13.926;2022-08-14T08:12:50;97146.72;;;25.36;100.00
52983;BME280;48698;45.736;13.926;2022-08-14T08:17:54;97054.56;;;25.26;100.00
52983;BME280;48698;45.736;13.926;2022-08-14T08:23:06;97160.28;;;26.48;100.00
52983;BME280;48698;45.736;13.926;2022-08-14T08:28:23;97169.28;;;26.63;99.18
52983;BME280;48698;45.736;13.926;2022-08-14T08:33:31;97166.91;;;26.89;91.32
52983;BME280;48698;45.736;13.926;2022-08-14T08:38:38;97091.84;;;26.72;89.49
52983;BME280;48698;45.736;13.926;2022-08-14T08:44:04;97137.91;;;26.67;84.71
52983;BME280;48698;45.736;13.926;2022-08-14T08:49:37;96973.16;;;26.20;66.51
52983;BME280;48698;45.736;13.926;2022-08-14T08:59:45;97138.34;;;27.63;69.66
52983;BME280;48698;45.736;13.926;2022-08-14T09:05:01;97131.78;;;27.58;53.82
52983;BME280;48698;45.736;13.926;2022-08-14T09:10:06;97137.06;;;27.02;84.87
52983;BME280;48698;45.736;13.926;2022-08-14T09:15:09;97136.84;;;27.89;84.27
52983;BME280;48698;45.736;13.926;2022-08-14T09:20:16;97126.66;;;27.97;80.85
52983;BME280;48698;45.736;13.926;2022-08-14T09:25:27;97136.34;;;27.79;79.96
52983;BME280;48698;45.736;13.926;2022-08-14T09:30:52;97141.41;;;27.82;81.62
52983;BME280;48698;45.736;13.926;2022-08-14T09:36:32;97139.56;;;27.40;81.51
52983;BME280;48698;45.736;13.926;2022-08-14T09:47:12;97148.88;;;27.45;68.78
52983;BME280;48698;45.736;13.926;2022-08-14T09:52:21;97153.09;;;27.97;66.30
52983;BME280;48698;45.736;13.926;2022-08-14T09:57:35;97116.81;;;27.75;63.83
52983;BME280;48698;45.736;13.926;2022-08-14T10:02:38;97087.00;;;28.36;60.28
52983;BME280;48698;45.736;13.926;2022-08-14T10:07:49;97104.66;;;28.40;56.42
52983;BME280;48698;45.736;13.926;2022-08-14T10:13:00;97154.25;;;28.09;57.85
52983;BME280;48698;45.736;13.926;2022-08-14T10:18:09;97082.28;;;28.16;55.22
52983;BME280;48698;45.736;13.926;2022-08-14T10:23:21;97082.44;;;28.08;57.04
52983;BME280;48698;45.736;13.926;2022-08-14T10:28:38;97129.22;;;28.33;53.88
52983;BME280;48698;45.736;13.926;2022-08-14T10:38:55;97143.97;;;28.80;55.71
52983;BME280;48698;45.736;13.926;2022-08-14T10:44:21;97138.25;;;28.74;52.84
52983;BME280;48698;45.736;13.926;2022-08-14T10:49:25;97155.75;;;28.80;53.69
52983;BME280;48698;45.736;13.926;2022-08-14T10:54:32;96987.97;;;27.17;60.88
52983;BME280;48698;45.736;13.926;2022-08-14T10:59:49;97107.75;;;28.71;54.76
52983;BME280;48698;45.736;13.926;2022-08-14T11:05:00;97144.31;;;28.29;53.63
52983;BME280;48698;45.736;13.926;2022-08-14T11:14:56;97120.69;;;28.49;43.34
52983;BME280;48698;45.736;13.926;2022-08-14T11:20:07;97074.84;;;29.05;44.93
52983;BME280;48698;45.736;13.926;2022-08-14T11:25:18;97119.69;;;28.63;44.30
52983;BME280;48698;45.736;13.926;2022-08-14T11:30:28;97103.56;;;28.68;51.89
52983;BME280;48698;45.736;13.926;2022-08-14T11:35:51;97035.72;;;27.62;53.43
52983;BME280;48698;45.736;13.926;2022-08-14T11:41:00;97081.94;;;28.33;49.99
52983;BME280;48698;45.736;13.926;2022-08-14T11:46:05;97094.38;;;28.83;49.69
52983;BME280;48698;45.736;13.926;2022-08-14T11:51:23;97093.91;;;28.32;46.37
52983;BME280;48698;45.736;13.926;2022-08-14T11:56:37;96938.91;;;27.86;45.94
52983;BME280;48698;45.736;13.926;2022-08-14T12:01:45;97028.00;;;28.00;48.98
52983;BME280;48698;45.736;13.926;2022-08-14T12:06:50;97077.66;;;29.25;44.41
52983;BME280;48698;45.736;13.926;2022-08-14T12:11:55;97089.84;;;28.21;46.01
52983;BME280;48698;45.736;13.926;2022-08-14T12:17:06;97029.22;;;28.39;44.64
52983;BME280;48698;45.736;13.926;2022-08-14T12:22:14;96906.88;;;27.54;44.68
52983;BME280;48698;45.736;13.926;2022-08-14T12:27:51;97071.09;;;29.19;42.58
52983;BME280;48698;45.736;13.926;2022-08-14T12:33:02;97070.25;;;29.12;42.74
52983;BME280;48698;45.736;13.926;2022-08-14T12:38:10;97063.09;;;29.24;41.04
52983;BME280;48698;45.736;13.926;2022-08-14T12:43:22;97052.53;;;28.89;42.63
52983;BME280;48698;45.736;13.926;2022-08-14T12:48:25;96961.34;;;28.22;42.91
52983;BME280;48698;45.736;13.926;2022-08-14T12:53:34;97051.84;;;28.67;41.39
52983;BME280;48698;45.736;13.926;2022-08-14T12:58:40;96998.50;;;28.97;41.67
52983;BME280;48698;45.736;13.926;2022-08-14T13:04:03;97027.53;;;29.77;40.23
52983;BME280;48698;45.736;13.926;2022-08-14T13:09:08;96974.59;;;29.26;40.32
52983;BME280;48698;45.736;13.926;2022-08-14T13:14:15;97017.03;;;29.21;39.45
52983;BME280;48698;45.736;13.926;2022-08-14T13:19:23;97002.31;;;29.09;39.54
52983;BME280;48698;45.736;13.926;2022-08-14T13:24:29;97015.59;;;29.32;39.35
52983;BME280;48698;45.736;13.926;2022-08-14T13:29:39;96989.25;;;29.18;39.94
52983;BME280;48698;45.736;13.926;2022-08-14T13:34:48;96989.50;;;29.16;42.48
52983;BME280;48698;45.736;13.926;2022-08-14T13:39:54;96964.66;;;29.51;40.86
52983;BME280;48698;45.736;13.926;2022-08-14T13:45:00;97001.06;;;29.45;40.92
52983;BME280;48698;45.736;13.926;2022-08-14T13:50:07;96987.56;;;28.97;40.94
52983;BME280;48698;45.736;13.926;2022-08-14T13:55:11;96988.88;;;29.28;41.75
52983;BME280;48698;45.736;13.926;2022-08-14T14:00:15;96899.25;;;28.70;39.61
52983;BME280;48698;45.736;13.926;2022-08-14T14:05:36;96986.34;;;29.06;41.91
52983;BME280;48698;45.736;13.926;2022-08-14T14:10:54;96943.22;;;28.76;41.45
52983;BME280;48698;45.736;13.926;2022-08-14T14:15:58;96936.72;;;28.96;41.13
52983;BME280;48698;45.736;13.926;2022-08-14T14:21:05;96969.44;;;28.63;43.15
52983;BME280;48698;45.736;13.926;2022-08-14T14:26:14;96902.84;;;28.84;42.33
52983;BME280;48698;45.736;13.926;2022-08-14T14:31:27;96977.28;;;28.93;42.88
52983;BME280;48698;45.736;13.926;2022-08-14T14:36:34;96878.06;;;28.66;42.95
52983;BME280;48698;45.736;13.926;2022-08-14T14:41:47;96953.03;;;28.50;43.54
52983;BME280;48698;45.736;13.926;2022-08-14T14:46:58;96979.78;;;28.74;45.21
52983;BME280;48698;45.736;13.926;2022-08-14T14:52:03;96982.78;;;28.26;46.03
52983;BME280;48698;45.736;13.926;2022-08-14T14:57:08;96896.78;;;27.54;47.70
52983;BME280;48698;45.736;13.926;2022-08-14T15:02:32;96971.66;;;27.86;47.31
52983;BME280;48698;45.736;13.926;2022-08-14T15:07:38;96834.81;;;27.01;47.83
52983;BME280;48698;45.736;13.926;2022-08-14T15:12:42;96781.13;;;27.01;47.25
52983;BME280;48698;45.736;13.926;2022-08-14T15:17:59;96761.84;;;26.96;48.89
52983;BME280;48698;45.736;13.926;2022-08-14T15:23:02;96790.50;;;27.27;48.67
52983;BME280;48698;45.736;13.926;2022-08-14T15:28:13;96944.13;;;28.29;49.75
52983;BME280;48698;45.736;13.926;2022-08-14T15:33:22;96877.34;;;27.30;47.75
52983;BME280;48698;45.736;13.926;2022-08-14T15:39:15;96935.16;;;27.87;46.69
52983;BME280;48698;45.736;13.926;2022-08-14T15:44:19;96945.97;;;28.08;46.91
52983;BME280;48698;45.736;13.926;2022-08-14T15:49:28;96868.75;;;27.67;46.65
52983;BME280;48698;45.736;13.926;2022-08-14T15:54:36;96888.31;;;27.77;46.63
52983;BME280;48698;45.736;13.926;2022-08-14T15:59:39;96908.25;;;27.91;47.13
52983;BME280;48698;45.736;13.926;2022-08-14T16:05:02;96868.84;;;28.00;46.34
52983;BME280;48698;45.736;13.926;2022-08-14T16:10:07;96912.91;;;27.90;46.13
52983;BME280;48698;45.736;13.926;2022-08-14T16:15:30;96894.78;;;27.76;45.92
52983;BME280;48698;45.736;13.926;2022-08-14T16:20:39;96872.47;;;27.59;46.82
52983;BME280;48698;45.736;13.926;2022-08-14T16:25:45;96870.03;;;27.37;46.63
52983;BME280;48698;45.736;13.926;2022-08-14T16:30:53;96905.63;;;27.56;46.66
52983;BME280;48698;45.736;13.926;2022-08-14T16:35:57;96896.19;;;27.31;47.54
52983;BME280;48698;45.736;13.926;2022-08-14T16:41:03;96893.50;;;28.19;46.48
52983;BME280;48698;45.736;13.926;2022-08-14T16:46:19;96883.22;;;27.67;47.57
52983;BME280;48698;45.736;13.926;2022-08-14T16:51:28;96883.03;;;28.36;46.69
52983;BME280;48698;45.736;13.926;2022-08-14T16:56:39;96722.56;;;27.32;45.99
52983;BME280;48698;45.736;13.926;2022-08-14T17:01:44;96888.75;;;28.87;44.61
52983;BME280;48698;45.736;13.926;2022-08-14T17:06:53;96867.53;;;28.96;43.98
52983;BME280;48698;45.736;13.926;2022-08-14T17:12:01;96888.25;;;28.24;45.22
52983;BME280;48698;45.736;13.926;2022-08-14T17:17:08;96853.78;;;29.42;42.22
52983;BME280;48698;45.736;13.926;2022-08-14T17:22:12;96799.16;;;29.15;42.25
52983;BME280;48698;45.736;13.926;2022-08-14T17:27:20;96885.56;;;28.64;43.43
52983;BME280;48698;45.736;13.926;2022-08-14T17:32:29;96859.25;;;27.22;46.61
52983;BME280;48698;45.736;13.926;2022-08-14T17:38:08;96871.41;;;26.92;52.28
52983;BME280;48698;45.736;13.926;2022-08-14T17:43:31;96884.16;;;26.42;54.42
52983;BME280;48698;45.736;13.926;2022-08-14T17:48:43;96884.91;;;25.29;73.91
52983;BME280;48698;45.736;13.926;2022-08-14T17:54:07;96837.75;;;24.40;81.98
52983;BME280;48698;45.736;13.926;2022-08-14T17:59:10;96877.19;;;23.75;95.30
52983;BME280;48698;45.736;13.926;2022-08-14T18:04:18;96867.38;;;22.88;100.00
52983;BME280;48698;45.736;13.926;2022-08-14T18:09:29;96870.47;;;22.44;100.00
52983;BME280;48698;45.736;13.926;2022-08-14T18:14:33;96845.09;;;21.81;100.00
52983;BME280;48698;45.736;13.926;2022-08-14T18:19:53;96868.94;;;22.17;100.00
52983;BME280;48698;45.736;13.926;2022-08-14T18:24:58;96874.03;;;22.37;100.00
52983;BME280;48698;45.736;13.926;2022-08-14T18:30:05;96871.94;;;21.82;100.00
52983;BME280;48698;45.736;13.926;2022-08-14T18:35:44;96888.66;;;20.68;100.00
52983;BME280;48698;45.736;13.926;2022-08-14T18:41:28;96889.56;;;20.33;100.00
52983;BME280;48698;45.736;13.926;2022-08-14T18:52:11;96894.25;;;21.00;100.00
52983;BME280;48698;45.736;13.926;2022-08-14T18:57:20;96883.13;;;19.46;100.00
52983;BME280;48698;45.736;13.926;2022-08-14T19:07:31;96905.91;;;20.14;100.00
52983;BME280;48698;45.736;13.926;2022-08-14T19:13:00;96913.69;;;20.17;100.00
52983;BME280;48698;45.736;13.926;2022-08-14T19:18:23;96867.41;;;19.86;100.00
52983;BME280;48698;45.736;13.926;2022-08-14T19:23:31;96870.38;;;19.48;100.00
52983;BME280;48698;45.736;13.926;2022-08-14T19:28:45;96903.38;;;19.23;100.00
52983;BME280;48698;45.736;13.926;2022-08-14T19:33:51;96901.88;;;19.38;100.00
52983;BME280;48698;45.736;13.926;2022-08-14T19:38:59;96903.69;;;19.47;100.00
52983;BME280;48698;45.736;13.926;2022-08-14T19:44:15;96933.06;;;19.40;100.00
52983;BME280;48698;45.736;13.926;2022-08-14T19:49:31;96915.22;;;19.30;100.00
52983;BME280;48698;45.736;13.926;2022-08-14T19:54:54;96870.06;;;18.59;100.00
52983;BME280;48698;45.736;13.926;2022-08-14T20:05:06;96930.75;;;18.81;100.00
52983;BME280;48698;45.736;13.926;2022-08-14T20:10:34;96922.31;;;18.57;100.00
52983;BME280;48698;45.736;13.926;2022-08-14T20:16:06;96951.16;;;18.07;100.00
52983;BME280;48698;45.736;13.926;2022-08-14T20:21:14;96822.81;;;17.53;100.00
52983;BME280;48698;45.736;13.926;2022-08-14T20:26:19;96919.19;;;18.62;100.00
52983;BME280;48698;45.736;13.926;2022-08-14T20:31:34;96753.25;;;16.92;100.00
52983;BME280;48698;45.736;13.926;2022-08-14T20:36:45;96853.34;;;17.62;100.00
52983;BME280;48698;45.736;13.926;2022-08-14T20:41:48;96942.75;;;17.52;100.00
52983;BME280;48698;45.736;13.926;2022-08-14T20:46:57;96786.28;;;16.23;100.00
52983;BME280;48698;45.736;13.926;2022-08-14T20:52:07;96951.41;;;17.66;100.00
52983;BME280;48698;45.736;13.926;2022-08-14T20:57:20;96726.81;;;16.78;100.00
52983;BME280;48698;45.736;13.926;2022-08-14T21:07:51;96962.91;;;17.96;100.00
52983;BME280;48698;45.736;13.926;2022-08-14T21:13:11;96946.38;;;18.11;100.00
52983;BME280;48698;45.736;13.926;2022-08-14T21:18:38;96947.66;;;17.47;100.00
52983;BME280;48698;45.736;13.926;2022-08-14T21:23:51;96943.00;;;17.40;100.00
52983;BME280;48698;45.736;13.926;2022-08-14T21:28:58;96786.31;;;16.32;100.00
52983;BME280;48698;45.736;13.926;2022-08-14T21:34:02;96899.34;;;16.98;100.00
52983;BME280;48698;45.736;13.926;2022-08-14T21:39:26;96971.03;;;17.56;100.00
52983;BME280;48698;45.736;13.926;2022-08-14T21:44:30;96891.00;;;16.91;100.00
52983;BME280;48698;45.736;13.926;2022-08-14T21:49:45;96870.34;;;16.31;100.00
52983;BME280;48698;45.736;13.926;2022-08-14T21:54:51;96921.59;;;15.96;100.00
52983;BME280;48698;45.736;13.926;2022-08-14T21:59:58;96848.06;;;16.31;100.00
52983;BME280;48698;45.736;13.926;2022-08-14T22:05:27;96821.38;;;15.99;100.00
52983;BME280;48698;45.736;13.926;2022-08-14T22:10:32;96939.53;;;16.88;100.00
52983;BME280;48698;45.736;13.926;2022-08-14T22:15:35;96969.88;;;16.47;100.00
52983;BME280;48698;45.736;13.926;2022-08-14T22:20:45;96851.56;;;15.48;100.00
52983;BME280;48698;45.736;13.926;2022-08-14T22:25:48;96778.72;;;15.13;100.00
52983;BME280;48698;45.736;13.926;2022-08-14T22:30:54;96958.19;;;16.48;100.00
52983;BME280;48698;45.736;13.926;2022-08-14T22:36:00;96982.97;;;17.03;100.00
52983;BME280;48698;45.736;13.926;2022-08-14T22:41:27;96771.63;;;15.76;100.00
52983;BME280;48698;45.736;13.926;2022-08-14T22:46:43;96769.13;;;15.11;100.00
52983;BME280;48698;45.736;13.926;2022-08-14T22:51:46;96962.81;;;16.26;100.00
52983;BME280;48698;45.736;13.926;2022-08-14T22:56:51;96973.16;;;16.51;100.00
52983;BME280;48698;45.736;13.926;2022-08-14T23:02:15;96974.13;;;16.29;100.00
52983;BME280;48698;45.736;13.926;2022-08-14T23:07:31;96963.31;;;15.67;100.00
52983;BME280;48698;45.736;13.926;2022-08-14T23:12:54;96842.03;;;15.24;100.00
52983;BME280;48698;45.736;13.926;2022-08-14T23:17:58;96957.16;;;15.87;100.00
52983;BME280;48698;45.736;13.926;2022-08-14T23:23:14;96953.28;;;16.33;100.00
52983;BME280;48698;45.736;13.926;2022-08-14T23:28:24;96905.38;;;15.98;100.00
52983;BME280;48698;45.736;13.926;2022-08-14T23:33:37;96944.84;;;16.17;100.00
52983;BME280;48698;45.736;13.926;2022-08-14T23:38:53;96921.00;;;16.14;100.00
52983;BME280;48698;45.736;13.926;2022-08-14T23:43:57;96948.28;;;16.08;100.00
52983;BME280;48698;45.736;13.926;2022-08-14T23:49:03;96904.41;;;15.24;100.00
52983;BME280;48698;45.736;13.926;2022-08-14T23:54:06;96799.03;;;14.39;100.00
52983;BME280;48698;45.736;13.926;2022-08-14T23:59:30;96861.41;;;14.83;100.00
